createdAt,value
2023-03-06T00:02:41.948Z,-2.69
2023-03-06T00:05:51.012Z,-2.67
2023-03-06T00:08:57.536Z,-2.59
2023-03-06T00:12:03.007Z,-2.53
2023-03-06T00:15:11.464Z,-2.49
2023-03-06T00:18:17.493Z,-2.61
2023-03-06T00:21:26.551Z,-2.67
2023-03-06T00:24:31.992Z,-2.68
2023-03-06T00:27:38.345Z,-2.68
2023-03-06T00:30:43.804Z,-2.61
2023-03-06T00:33:50.141Z,-2.53
2023-03-06T00:36:59.116Z,-2.49
2023-03-06T00:40:08.526Z,-2.42
2023-03-06T00:43:14.472Z,-2.35
2023-03-06T00:46:21.498Z,-2.35
2023-03-06T00:49:26.995Z,-2.46
2023-03-06T00:52:36.694Z,-2.41
2023-03-06T00:55:42.154Z,-2.40
2023-03-06T00:58:48.892Z,-2.36
2023-03-06T01:02:17.360Z,-2.35
2023-03-06T01:05:25.011Z,-2.38
2023-03-06T01:08:33.630Z,-2.43
2023-03-06T01:11:39.971Z,-2.50
2023-03-06T01:14:45.654Z,-2.54
2023-03-06T01:17:55.798Z,-2.49
2023-03-06T01:21:01.169Z,-2.51
2023-03-06T01:24:11.535Z,-2.54
2023-03-06T01:27:17.007Z,-2.49
2023-03-06T01:30:24.871Z,-2.49
2023-03-06T01:33:30.583Z,-2.50
2023-03-06T01:36:36.955Z,-2.46
2023-03-06T01:39:45.209Z,-2.36
2023-03-06T01:42:53.818Z,-2.33
2023-03-06T01:46:33.568Z,-2.20
2023-03-06T01:49:44.438Z,-2.21
2023-03-06T01:52:56.286Z,-2.14
2023-03-06T01:56:05.781Z,-2.08
2023-03-06T01:59:11.765Z,-2.03
2023-03-06T02:02:19.948Z,-1.97
2023-03-06T02:05:26.919Z,-1.96
2023-03-06T02:08:36.206Z,-2.01
2023-03-06T02:11:46.533Z,-2.14
2023-03-06T02:14:54.429Z,-2.02
2023-03-06T02:18:00.150Z,-2.05
2023-03-06T02:21:11.669Z,-1.99
2023-03-06T02:24:33.336Z,-2.01
2023-03-06T02:27:43.675Z,-2.06
2023-03-06T02:30:52.905Z,-2.01
2023-03-06T02:34:11.309Z,-1.94
2023-03-06T02:37:16.897Z,-1.85
2023-03-06T02:40:26.178Z,-1.88
2023-03-06T02:43:40.583Z,-1.87
2023-03-06T02:46:46.842Z,-1.88
2023-03-06T02:49:52.358Z,-1.83
2023-03-06T02:52:59.039Z,-1.91
2023-03-06T02:56:04.820Z,-1.89
2023-03-06T02:59:14.328Z,-1.93
2023-03-06T03:02:19.946Z,-1.87
2023-03-06T03:05:27.133Z,-1.91
2023-03-06T03:08:38.978Z,-1.94
2023-03-06T03:11:47.003Z,-1.91
2023-03-06T03:14:55.542Z,-1.88
2023-03-06T03:18:01.779Z,-1.83
2023-03-06T03:21:12.243Z,-1.79
2023-03-06T03:24:19.013Z,-1.92
2023-03-06T03:27:24.477Z,-1.95
2023-03-06T03:30:33.926Z,-1.94
2023-03-06T03:33:41.669Z,-2.05
2023-03-06T03:36:49.175Z,-1.89
2023-03-06T03:39:56.615Z,-1.85
2023-03-06T03:43:02.998Z,-1.85
2023-03-06T03:46:11.609Z,-1.83
2023-03-06T03:49:19.287Z,-1.83
2023-03-06T03:52:25.817Z,-1.84
2023-03-06T03:55:32.648Z,-1.88
2023-03-06T03:58:38.552Z,-1.95
2023-03-06T04:01:48.519Z,-1.98
2023-03-06T04:04:54.686Z,-2.13
2023-03-06T04:08:03.331Z,-2.22
2023-03-06T04:11:10.307Z,-2.32
2023-03-06T04:14:16.667Z,-2.35
2023-03-06T04:17:25.892Z,-2.39
2023-03-06T04:20:33.815Z,-2.46
2023-03-06T04:23:40.337Z,-2.55
2023-03-06T04:26:47.263Z,-2.51
2023-03-06T04:29:56.476Z,-2.54
2023-03-06T04:33:06.772Z,-2.52
2023-03-06T04:36:29.317Z,-2.47
2023-03-06T04:39:39.223Z,-2.47
2023-03-06T04:42:44.752Z,-2.45
2023-03-06T04:45:51.801Z,-2.42
2023-03-06T04:49:00.285Z,-2.36
2023-03-06T04:52:08.104Z,-2.28
2023-03-06T04:55:18.266Z,-2.23
2023-03-06T04:58:25.119Z,-2.16
2023-03-06T05:01:30.525Z,-2.08
2023-03-06T05:04:39.894Z,-2.02
2023-03-06T05:07:46.186Z,-1.96
2023-03-06T05:10:59.433Z,-1.87
2023-03-06T05:14:04.795Z,-1.78
2023-03-06T05:17:11.037Z,-1.70
2023-03-06T05:20:20.891Z,-1.61
2023-03-06T05:23:27.140Z,-1.54
2023-03-06T05:26:34.035Z,-1.44
2023-03-06T05:29:40.368Z,-1.34
2023-03-06T05:32:46.386Z,-1.33
2023-03-06T05:35:56.144Z,-1.31
2023-03-06T05:39:01.814Z,-1.28
2023-03-06T05:42:08.302Z,-1.25
2023-03-06T05:45:15.274Z,-1.19
2023-03-06T05:48:21.897Z,-1.15
2023-03-06T05:51:30.256Z,-1.07
2023-03-06T05:54:39.759Z,-1.05
2023-03-06T05:57:45.211Z,-1.08
2023-03-06T06:00:52.316Z,-1.09
2023-03-06T06:03:58.091Z,-0.99
2023-03-06T06:07:07.823Z,-1.01
2023-03-06T06:10:15.585Z,-0.94
2023-03-06T06:13:21.873Z,-0.97
2023-03-06T06:16:27.351Z,-1.14
2023-03-06T06:19:34.845Z,-1.25
2023-03-06T06:22:43.149Z,-1.37
2023-03-06T06:25:49.403Z,-1.36
2023-03-06T06:28:54.946Z,-1.32
2023-03-06T06:32:01.697Z,-1.33
2023-03-06T06:35:08.614Z,-1.76
2023-03-06T06:38:17.719Z,-1.31
2023-03-06T06:42:02.361Z,-1.29
2023-03-06T06:44:49.574Z,-1.20
2023-03-06T06:47:55.161Z,-1.24
2023-03-06T06:51:05.344Z,-1.18
2023-03-06T06:54:14.259Z,-1.07
2023-03-06T06:57:20.955Z,-0.98
2023-03-06T07:00:27.841Z,-0.84
2023-03-06T07:03:34.453Z,-0.75
2023-03-06T07:06:40.190Z,-0.66
2023-03-06T07:09:49.222Z,-0.53
2023-03-06T07:12:56.669Z,-0.44
2023-03-06T07:16:02.992Z,-0.38
2023-03-06T07:19:08.883Z,-0.37
2023-03-06T07:22:15.363Z,-0.50
2023-03-06T07:25:24.369Z,-0.43
2023-03-06T07:28:40.017Z,-0.33
2023-03-06T07:31:51.644Z,-0.14
2023-03-06T07:35:13.733Z,-0.07
2023-03-06T07:38:23.272Z,0.09
2023-03-06T07:41:32.385Z,0.13
2023-03-06T07:44:40.674Z,0.01
2023-03-06T07:47:47.061Z,0.07
2023-03-06T07:51:00.048Z,0.09
2023-03-06T07:54:06.615Z,0.11
2023-03-06T07:57:16.340Z,0.23
2023-03-06T08:00:24.110Z,0.30
2023-03-06T08:03:29.707Z,0.34
2023-03-06T08:06:36.140Z,0.36
2023-03-06T08:09:41.729Z,0.34
2023-03-06T08:12:50.833Z,0.36
2023-03-06T08:15:57.086Z,0.45
2023-03-06T08:19:03.376Z,0.51
2023-03-06T08:22:11.275Z,0.70
2023-03-06T08:25:17.556Z,0.80
2023-03-06T08:28:25.785Z,0.93
2023-03-06T08:31:35.990Z,1.05
2023-03-06T08:34:43.135Z,1.18
2023-03-06T08:37:49.380Z,1.23
2023-03-06T08:40:54.798Z,1.20
2023-03-06T08:44:04.330Z,1.29
2023-03-06T08:47:09.970Z,1.22
2023-03-06T08:50:16.953Z,1.32
2023-03-06T08:53:33.456Z,1.32
2023-03-06T08:56:48.337Z,1.47
2023-03-06T08:59:56.550Z,1.43
2023-03-06T09:03:02.896Z,1.44
2023-03-06T09:06:08.574Z,1.58
2023-03-06T09:09:16.067Z,1.59
2023-03-06T09:12:21.534Z,1.56
2023-03-06T09:15:30.762Z,1.45
2023-03-06T09:18:36.231Z,1.46
2023-03-06T09:21:42.821Z,1.47
2023-03-06T09:24:48.338Z,1.47
2023-03-06T09:28:10.151Z,1.45
2023-03-06T09:31:23.007Z,1.21
2023-03-06T09:34:29.700Z,1.14
2023-03-06T09:37:35.192Z,1.16
2023-03-06T09:41:11.998Z,1.20
2023-03-06T09:44:24.149Z,1.27
2023-03-06T09:48:00.399Z,1.41
2023-03-06T09:51:15.630Z,1.50
2023-03-06T09:54:44.733Z,1.60
2023-03-06T09:58:07.137Z,1.58
2023-03-06T10:01:25.117Z,1.54
2023-03-06T10:04:46.998Z,1.52
2023-03-06T10:08:03.683Z,1.47
2023-03-06T10:11:15.030Z,1.61
2023-03-06T10:14:36.848Z,1.66
2023-03-06T10:17:45.753Z,1.78
2023-03-06T10:21:18.695Z,1.94
2023-03-06T10:24:59.338Z,2.02
2023-03-06T10:28:18.808Z,2.16
2023-03-06T10:31:28.987Z,2.16
2023-03-06T10:34:41.345Z,2.26
2023-03-06T10:37:50.207Z,2.17
2023-03-06T10:41:19.831Z,2.33
2023-03-06T10:44:28.635Z,2.44
2023-03-06T10:47:38.037Z,2.54
2023-03-06T10:50:43.545Z,2.78
2023-03-06T10:53:59.978Z,2.99
2023-03-06T10:57:28.679Z,3.14
2023-03-06T11:00:39.008Z,3.27
2023-03-06T11:03:44.455Z,3.41
2023-03-06T11:06:51.476Z,3.29
2023-03-06T11:10:23.840Z,3.10
2023-03-06T11:13:33.655Z,2.13
2023-03-06T11:16:41.719Z,3.62
2023-03-06T11:19:48.258Z,3.67
2023-03-06T11:22:59.973Z,3.66
2023-03-06T11:26:33.364Z,3.75
2023-03-06T11:29:45.583Z,3.87
2023-03-06T11:33:01.650Z,4.00
2023-03-06T11:36:19.222Z,4.02
2023-03-06T11:39:40.092Z,3.95
2023-03-06T11:43:02.574Z,3.84
2023-03-06T11:46:22.560Z,3.92
2023-03-06T11:49:36.213Z,3.88
2023-03-06T11:52:54.561Z,3.85
2023-03-06T11:56:17.530Z,3.91
2023-03-06T12:00:02.890Z,3.95
2023-03-06T12:03:55.479Z,3.87
2023-03-06T12:07:28.630Z,3.81
2023-03-06T12:10:51.744Z,3.94
2023-03-06T12:14:30.421Z,3.91
2023-03-06T12:18:09.102Z,4.02
2023-03-06T12:21:34.233Z,3.86
2023-03-06T12:25:21.570Z,4.11
2023-03-06T12:28:57.113Z,4.19
2023-03-06T12:32:18.564Z,4.26
2023-03-06T12:36:03.889Z,4.40
2023-03-06T12:39:19.895Z,4.02
2023-03-06T12:43:07.860Z,4.57
2023-03-06T12:46:19.987Z,4.64
2023-03-06T12:49:32.850Z,4.95
2023-03-06T12:52:42.034Z,5.17
2023-03-06T12:55:53.045Z,5.40
2023-03-06T12:59:02.422Z,5.68
2023-03-06T13:02:58.151Z,5.55
2023-03-06T13:06:51.468Z,5.67
2023-03-06T13:10:17.274Z,5.69
2023-03-06T13:13:36.175Z,5.49
2023-03-06T13:16:42.547Z,5.79
2023-03-06T13:19:48.593Z,5.96
2023-03-06T13:22:54.861Z,6.22
2023-03-06T13:26:06.326Z,6.10
2023-03-06T13:30:08.773Z,5.85
2023-03-06T13:33:59.459Z,5.52
2023-03-06T13:37:51.852Z,5.22
2023-03-06T13:41:53.935Z,5.06
2023-03-06T13:45:17.119Z,4.86
2023-03-06T13:48:44.305Z,4.80
2023-03-06T13:52:13.292Z,4.62
2023-03-06T13:55:39.097Z,4.48
2023-03-06T13:59:20.296Z,4.44
2023-03-06T14:03:21.809Z,4.16
2023-03-06T14:07:06.608Z,4.11
2023-03-06T14:10:30.311Z,3.87
2023-03-06T14:13:52.598Z,3.78
2023-03-06T14:17:02.978Z,3.61
2023-03-06T14:20:23.783Z,3.56
2023-03-06T14:23:35.838Z,3.65
2023-03-06T14:26:48.960Z,3.59
2023-03-06T14:29:54.421Z,3.54
2023-03-06T14:33:00.859Z,3.27
2023-03-06T14:36:15.899Z,2.82
2023-03-06T14:39:32.935Z,2.18
2023-03-06T14:42:39.642Z,1.65
2023-03-06T14:46:03.746Z,0.99
2023-03-06T14:49:11.425Z,0.41
2023-03-06T14:52:24.693Z,0.34
2023-03-06T14:55:33.227Z,0.31
2023-03-06T14:58:51.450Z,0.37
2023-03-06T15:02:04.065Z,0.46
2023-03-06T15:05:26.318Z,0.44
2023-03-06T15:08:41.928Z,0.54
2023-03-06T15:11:58.775Z,0.64
2023-03-06T15:15:26.652Z,0.62
2023-03-06T15:18:39.223Z,0.71
2023-03-06T15:21:49.532Z,0.73
2023-03-06T15:25:24.720Z,0.74
2023-03-06T15:28:40.623Z,0.88
2023-03-06T15:31:49.651Z,0.79
2023-03-06T15:35:29.844Z,0.92
2023-03-06T15:38:42.086Z,0.94
2023-03-06T15:41:50.959Z,1.07
2023-03-06T15:45:03.507Z,1.13
2023-03-06T15:48:21.127Z,1.24
2023-03-06T15:51:28.239Z,1.32
2023-03-06T15:54:33.847Z,1.39
2023-03-06T15:57:52.422Z,1.35
2023-03-06T16:00:58.025Z,1.42
2023-03-06T16:04:04.532Z,1.45
2023-03-06T16:07:10.439Z,1.30
2023-03-06T16:10:19.990Z,1.43
2023-03-06T16:13:31.976Z,1.49
2023-03-06T16:16:41.396Z,1.42
2023-03-06T16:19:47.630Z,1.47
2023-03-06T16:22:55.082Z,1.44
2023-03-06T16:26:00.908Z,1.42
2023-03-06T16:29:10.451Z,1.46
2023-03-06T16:32:16.029Z,1.46
2023-03-06T16:35:22.610Z,1.53
2023-03-06T16:38:28.190Z,1.53
2023-03-06T16:41:34.718Z,1.60
2023-03-06T16:44:43.122Z,1.63
2023-03-06T16:47:51.718Z,1.61
2023-03-06T16:50:57.340Z,1.62
2023-03-06T16:54:03.858Z,1.63
2023-03-06T16:57:09.567Z,1.70
2023-03-06T17:00:22.383Z,1.72
2023-03-06T17:03:28.098Z,1.75
2023-03-06T17:06:34.639Z,1.77
2023-03-06T17:09:40.423Z,1.74
2023-03-06T17:12:47.447Z,1.64
2023-03-06T17:15:59.736Z,1.65
2023-03-06T17:19:06.307Z,1.52
2023-03-06T17:22:11.885Z,1.36
2023-03-06T17:25:18.442Z,0.45
2023-03-06T17:28:24.058Z,1.22
2023-03-06T17:31:33.911Z,1.34
2023-03-06T17:34:39.821Z,1.20
2023-03-06T17:37:46.296Z,1.15
2023-03-06T17:40:51.996Z,1.02
2023-03-06T17:44:02.085Z,0.97
2023-03-06T17:47:10.844Z,0.89
2023-03-06T17:50:17.314Z,0.88
2023-03-06T17:53:23.370Z,0.86
2023-03-06T17:56:30.683Z,0.87
2023-03-06T17:59:37.471Z,0.85
2023-03-06T18:02:47.276Z,0.84
2023-03-06T18:06:02.732Z,0.86
2023-03-06T18:09:10.335Z,0.84
2023-03-06T18:12:16.068Z,0.75
2023-03-06T18:15:23.486Z,0.65
2023-03-06T18:18:32.014Z,0.61
2023-03-06T18:21:38.463Z,0.58
2023-03-06T18:24:44.052Z,0.64
2023-03-06T18:27:50.478Z,0.66
2023-03-06T18:30:56.096Z,0.75
2023-03-06T18:34:08.628Z,0.74
2023-03-06T18:37:14.280Z,0.74
2023-03-06T18:40:24.852Z,0.73
2023-03-06T18:43:32.211Z,0.71
2023-03-06T18:46:42.163Z,0.66
2023-03-06T18:49:50.600Z,0.55
2023-03-06T18:52:57.089Z,0.52
2023-03-06T18:56:02.917Z,0.43
2023-03-06T18:59:10.587Z,0.37
2023-03-06T19:02:16.806Z,0.32
2023-03-06T19:05:26.117Z,0.30
2023-03-06T19:08:32.422Z,0.27
2023-03-06T19:11:38.985Z,0.29
2023-03-06T19:14:44.853Z,0.33
2023-03-06T19:17:52.886Z,0.30
2023-03-06T19:21:11.516Z,0.45
2023-03-06T19:24:18.035Z,0.52
2023-03-06T19:27:23.998Z,0.55
2023-03-06T19:30:30.828Z,0.43
2023-03-06T19:33:37.808Z,0.43
2023-03-06T19:36:47.344Z,0.43
2023-03-06T19:39:53.120Z,0.42
2023-03-06T19:42:59.799Z,0.33
2023-03-06T19:46:05.734Z,0.28
2023-03-06T19:49:18.295Z,0.22
2023-03-06T19:52:27.604Z,0.24
2023-03-06T19:55:34.234Z,0.26
2023-03-06T19:58:40.942Z,0.22
2023-03-06T20:01:47.658Z,0.24
2023-03-06T20:04:53.432Z,0.18
2023-03-06T20:08:02.839Z,0.19
2023-03-06T20:11:09.089Z,0.14
2023-03-06T20:14:18.559Z,0.17
2023-03-06T20:17:24.398Z,0.14
2023-03-06T20:20:31.262Z,0.15
2023-03-06T20:23:40.038Z,0.11
2023-03-06T20:26:49.214Z,0.13
2023-03-06T20:29:55.044Z,0.05
2023-03-06T20:33:01.592Z,-0.03
2023-03-06T20:36:08.437Z,-0.09
2023-03-06T20:39:23.038Z,-0.03
2023-03-06T20:42:28.894Z,-0.05
2023-03-06T20:45:35.449Z,-0.17
2023-03-06T20:48:41.321Z,-0.21
2023-03-06T20:51:48.342Z,-0.15
2023-03-06T20:54:57.069Z,-0.22
2023-03-06T20:58:03.566Z,-0.24
2023-03-06T21:01:09.497Z,-0.39
2023-03-06T21:04:18.297Z,-0.29
2023-03-06T21:07:24.028Z,-0.32
2023-03-06T21:10:33.618Z,-0.42
2023-03-06T21:13:39.224Z,-0.49
2023-03-06T21:16:46.770Z,-0.48
2023-03-06T21:19:53.029Z,-0.46
2023-03-06T21:23:01.849Z,-0.44
2023-03-06T21:26:10.482Z,-0.52
2023-03-06T21:29:17.057Z,-0.46
2023-03-06T21:32:23.311Z,-0.43
2023-03-06T21:35:30.032Z,-0.42
2023-03-06T21:38:36.678Z,-0.38
2023-03-06T21:41:46.990Z,-0.27
2023-03-06T21:44:52.785Z,-0.21
2023-03-06T21:47:59.763Z,-0.16
2023-03-06T21:51:12.141Z,-0.14
2023-03-06T21:54:18.544Z,-0.12
2023-03-06T21:57:26.974Z,-0.07
2023-03-06T22:00:36.516Z,-0.01
2023-03-06T22:03:43.402Z,-0.07
2023-03-06T22:06:49.821Z,-0.12
2023-03-06T22:09:56.534Z,-0.06
2023-03-06T22:13:05.735Z,-0.15
2023-03-06T22:16:12.097Z,-0.13
2023-03-06T22:19:18.578Z,-0.12
2023-03-06T22:22:24.183Z,-0.22
2023-03-06T22:25:31.622Z,-0.14
2023-03-06T22:28:40.835Z,-0.08
2023-03-06T22:31:47.395Z,-0.10
2023-03-06T22:34:53.534Z,-0.11
2023-03-06T22:38:02.807Z,-0.10
2023-03-06T22:41:09.544Z,-0.08
2023-03-06T22:44:22.589Z,-0.07
2023-03-06T22:47:28.317Z,-0.07
2023-03-06T22:50:36.426Z,-0.03
2023-03-06T22:53:43.178Z,-0.00
2023-03-06T22:56:49.822Z,0.00
2023-03-06T22:59:58.125Z,-0.04
2023-03-06T23:03:04.747Z,-0.18
2023-03-06T23:06:14.555Z,-0.18
2023-03-06T23:09:25.748Z,-0.20
2023-03-06T23:12:50.390Z,-0.22
2023-03-06T23:16:18.699Z,-0.25
2023-03-06T23:19:43.073Z,-0.29
2023-03-06T23:23:07.772Z,-0.33
2023-03-06T23:26:22.069Z,-0.37
2023-03-06T23:29:28.633Z,-0.29
2023-03-06T23:32:37.714Z,-0.31
2023-03-06T23:35:44.504Z,-0.29
2023-03-06T23:38:50.474Z,-0.29
2023-03-06T23:41:57.064Z,-0.24
2023-03-06T23:45:02.591Z,-0.23
2023-03-06T23:48:12.287Z,-0.14
2023-03-06T23:51:20.781Z,-0.04
2023-03-06T23:54:27.134Z,0.06
2023-03-06T23:57:33.398Z,0.25
